sensor_id;sensor_type;location;lat;lon;timestamp;pressure;altitude;pressure_sealevel;temperature;humidity
55410;BME280;41279;43.546;16.426;2023-04-03T00:00:29;52638.56;;;-146.77;91.95
55410;BME280;41279;43.546;16.426;2023-04-03T00:02:55;52634.53;;;-146.77;92.36
55410;BME280;41279;43.546;16.426;2023-04-03T00:05:21;52606.53;;;-146.77;92.20
55410;BME280;41279;43.546;16.426;2023-04-03T00:07:46;52648.56;;;-146.77;92.52
55410;BME280;41279;43.546;16.426;2023-04-03T00:10:12;52608.53;;;-146.77;92.24
55410;BME280;41279;43.546;16.426;2023-04-03T00:12:39;52634.53;;;-146.77;92.82
55410;BME280;41279;43.546;16.426;2023-04-03T00:15:04;52638.56;;;-146.77;93.45
55410;BME280;41279;43.546;16.426;2023-04-03T00:17:30;52638.56;;;-146.77;93.18
55410;BME280;41279;43.546;16.426;2023-04-03T00:19:55;52638.56;;;-146.77;92.46
55410;BME280;41279;43.546;16.426;2023-04-03T00:22:28;52626.53;;;-146.77;91.84
55410;BME280;41279;43.546;16.426;2023-04-03T00:24:54;52622.53;;;-146.77;92.14
55410;BME280;41279;43.546;16.426;2023-04-03T00:27:20;52638.56;;;-146.77;92.92
55410;BME280;41279;43.546;16.426;2023-04-03T00:29:45;52602.50;;;-146.77;92.58
55410;BME280;41279;43.546;16.426;2023-04-03T00:32:17;52618.53;;;-146.77;92.59
55410;BME280;41279;43.546;16.426;2023-04-03T00:34:49;52642.56;;;-146.77;93.03
55410;BME280;41279;43.546;16.426;2023-04-03T00:37:15;52616.53;;;-146.77;92.92
55410;BME280;41279;43.546;16.426;2023-04-03T00:39:40;52630.53;;;-146.77;93.91
55410;BME280;41279;43.546;16.426;2023-04-03T00:42:06;52658.56;;;-146.77;94.28
55410;BME280;41279;43.546;16.426;2023-04-03T00:47:01;52640.56;;;-146.77;95.50
55410;BME280;41279;43.546;16.426;2023-04-03T00:49:28;52664.59;;;-146.77;96.15
55410;BME280;41279;43.546;16.426;2023-04-03T00:51:55;52634.53;;;-146.77;96.93
55410;BME280;41279;43.546;16.426;2023-04-03T00:54:21;52652.56;;;-146.77;97.98
55410;BME280;41279;43.546;16.426;2023-04-03T00:56:47;52688.59;;;-146.77;99.09
55410;BME280;41279;43.546;16.426;2023-04-03T00:59:16;52696.63;;;-146.77;100.00
55410;BME280;41279;43.546;16.426;2023-04-03T01:01:48;52712.63;;;-146.77;100.00
55410;BME280;41279;43.546;16.426;2023-04-03T01:04:29;52726.66;;;-146.77;100.00
55410;BME280;41279;43.546;16.426;2023-04-03T01:06:58;52736.66;;;-146.77;100.00
55410;BME280;41279;43.546;16.426;2023-04-03T01:09:26;52746.66;;;-146.77;100.00
55410;BME280;41279;43.546;16.426;2023-04-03T01:11:53;52724.66;;;-146.77;100.00
55410;BME280;41279;43.546;16.426;2023-04-03T01:14:18;52750.69;;;-146.77;100.00
55410;BME280;41279;43.546;16.426;2023-04-03T01:16:53;52724.66;;;-146.77;100.00
55410;BME280;41279;43.546;16.426;2023-04-03T01:19:19;52760.69;;;-146.77;100.00
55410;BME280;41279;43.546;16.426;2023-04-03T01:21:58;52734.66;;;-146.77;100.00
55410;BME280;41279;43.546;16.426;2023-04-03T01:24:37;52790.72;;;-146.77;100.00
55410;BME280;41279;43.546;16.426;2023-04-03T01:27:07;52756.69;;;-146.77;100.00
55410;BME280;41279;43.546;16.426;2023-04-03T01:29:34;52776.69;;;-146.77;100.00
55410;BME280;41279;43.546;16.426;2023-04-03T01:32:06;52778.72;;;-146.77;100.00
55410;BME280;41279;43.546;16.426;2023-04-03T01:34:32;52780.72;;;-146.77;100.00
55410;BME280;41279;43.546;16.426;2023-04-03T01:36:57;52774.69;;;-146.77;100.00
55410;BME280;41279;43.546;16.426;2023-04-03T01:39:23;52808.75;;;-146.77;100.00
55410;BME280;41279;43.546;16.426;2023-04-03T01:41:49;52802.72;;;-146.77;100.00
55410;BME280;41279;43.546;16.426;2023-04-03T01:44:15;52818.75;;;-146.77;100.00
55410;BME280;41279;43.546;16.426;2023-04-03T01:46:40;52800.72;;;-146.77;100.00
55410;BME280;41279;43.546;16.426;2023-04-03T01:49:07;52818.75;;;-146.77;100.00
55410;BME280;41279;43.546;16.426;2023-04-03T01:51:33;52830.75;;;-146.77;100.00
55410;BME280;41279;43.546;16.426;2023-04-03T01:53:58;52838.78;;;-146.77;100.00
55410;BME280;41279;43.546;16.426;2023-04-03T01:56:24;52834.78;;;-146.77;100.00
55410;BME280;41279;43.546;16.426;2023-04-03T01:58:50;52802.72;;;-146.77;100.00
55410;BME280;41279;43.546;16.426;2023-04-03T02:01:15;52838.78;;;-146.77;100.00
55410;BME280;41279;43.546;16.426;2023-04-03T02:03:41;52846.78;;;-146.77;100.00
55410;BME280;41279;43.546;16.426;2023-04-03T02:06:06;52848.78;;;-146.77;100.00
55410;BME280;41279;43.546;16.426;2023-04-03T02:08:32;52818.75;;;-146.77;100.00
55410;BME280;41279;43.546;16.426;2023-04-03T02:10:57;52792.72;;;-146.77;100.00
55410;BME280;41279;43.546;16.426;2023-04-03T02:13:23;52802.72;;;-146.77;100.00
55410;BME280;41279;43.546;16.426;2023-04-03T02:15:48;52794.72;;;-146.77;100.00
55410;BME280;41279;43.546;16.426;2023-04-03T02:18:14;52786.72;;;-146.77;100.00
55410;BME280;41279;43.546;16.426;2023-04-03T02:20:40;52782.72;;;-146.77;100.00
55410;BME280;41279;43.546;16.426;2023-04-03T02:23:05;52762.69;;;-146.77;100.00
55410;BME280;41279;43.546;16.426;2023-04-03T02:25:31;52760.69;;;-146.77;100.00
55410;BME280;41279;43.546;16.426;2023-04-03T02:27:57;52764.69;;;-146.77;100.00
55410;BME280;41279;43.546;16.426;2023-04-03T02:30:23;52740.66;;;-146.77;100.00
55410;BME280;41279;43.546;16.426;2023-04-03T02:32:48;52766.69;;;-146.77;100.00
55410;BME280;41279;43.546;16.426;2023-04-03T02:35:14;52764.69;;;-146.77;100.00
55410;BME280;41279;43.546;16.426;2023-04-03T02:37:39;52754.69;;;-146.77;100.00
55410;BME280;41279;43.546;16.426;2023-04-03T02:40:05;52762.69;;;-146.77;100.00
55410;BME280;41279;43.546;16.426;2023-04-03T02:42:31;52740.66;;;-146.77;100.00
55410;BME280;41279;43.546;16.426;2023-04-03T02:44:57;52754.69;;;-146.77;100.00
55410;BME280;41279;43.546;16.426;2023-04-03T02:47:22;52718.63;;;-146.77;100.00
55410;BME280;41279;43.546;16.426;2023-04-03T02:49:48;52720.66;;;-146.77;100.00
55410;BME280;41279;43.546;16.426;2023-04-03T02:52:14;52698.63;;;-146.77;100.00
55410;BME280;41279;43.546;16.426;2023-04-03T02:54:40;52674.59;;;-146.77;100.00
55410;BME280;41279;43.546;16.426;2023-04-03T02:57:06;52678.59;;;-146.77;100.00
55410;BME280;41279;43.546;16.426;2023-04-03T02:59:35;52672.59;;;-146.77;100.00
55410;BME280;41279;43.546;16.426;2023-04-03T03:02:00;52698.63;;;-146.77;100.00
55410;BME280;41279;43.546;16.426;2023-04-03T03:04:26;52656.56;;;-146.77;100.00
55410;BME280;41279;43.546;16.426;2023-04-03T03:06:51;52652.56;;;-146.77;100.00
55410;BME280;41279;43.546;16.426;2023-04-03T03:09:17;52696.63;;;-146.77;100.00
55410;BME280;41279;43.546;16.426;2023-04-03T03:11:43;52684.59;;;-146.77;100.00
55410;BME280;41279;43.546;16.426;2023-04-03T03:14:08;52682.59;;;-146.77;100.00
55410;BME280;41279;43.546;16.426;2023-04-03T03:16:34;52666.59;;;-146.77;100.00
55410;BME280;41279;43.546;16.426;2023-04-03T03:18:59;52678.59;;;-146.77;100.00
55410;BME280;41279;43.546;16.426;2023-04-03T03:21:25;52684.59;;;-146.77;100.00
55410;BME280;41279;43.546;16.426;2023-04-03T03:23:51;52636.56;;;-146.77;100.00
55410;BME280;41279;43.546;16.426;2023-04-03T03:26:16;52656.56;;;-146.77;100.00
55410;BME280;41279;43.546;16.426;2023-04-03T03:28:42;52632.53;;;-146.77;100.00
55410;BME280;41279;43.546;16.426;2023-04-03T03:31:09;52678.59;;;-146.77;100.00
55410;BME280;41279;43.546;16.426;2023-04-03T03:33:35;52648.56;;;-146.77;100.00
55410;BME280;41279;43.546;16.426;2023-04-03T03:36:00;52664.59;;;-146.77;100.00
55410;BME280;41279;43.546;16.426;2023-04-03T03:38:26;52646.56;;;-146.77;100.00
55410;BME280;41279;43.546;16.426;2023-04-03T03:40:52;52642.56;;;-146.77;100.00
55410;BME280;41279;43.546;16.426;2023-04-03T03:43:18;52638.56;;;-146.77;100.00
55410;BME280;41279;43.546;16.426;2023-04-03T03:45:44;52606.53;;;-146.77;100.00
55410;BME280;41279;43.546;16.426;2023-04-03T03:48:10;52630.53;;;-146.77;100.00
55410;BME280;41279;43.546;16.426;2023-04-03T03:50:36;52582.50;;;-146.77;100.00
55410;BME280;41279;43.546;16.426;2023-04-03T03:53:01;52636.56;;;-146.77;100.00
55410;BME280;41279;43.546;16.426;2023-04-03T03:55:27;52626.53;;;-146.77;100.00
55410;BME280;41279;43.546;16.426;2023-04-03T03:57:52;52618.53;;;-146.77;99.77
55410;BME280;41279;43.546;16.426;2023-04-03T04:00:18;52612.53;;;-146.77;100.00
55410;BME280;41279;43.546;16.426;2023-04-03T04:02:44;52608.53;;;-146.77;100.00
55410;BME280;41279;43.546;16.426;2023-04-03T04:05:10;52600.50;;;-146.77;100.00
55410;BME280;41279;43.546;16.426;2023-04-03T04:07:35;52618.53;;;-146.77;100.00
55410;BME280;41279;43.546;16.426;2023-04-03T04:10:01;52600.50;;;-146.77;99.41
55410;BME280;41279;43.546;16.426;2023-04-03T04:12:26;52612.53;;;-146.77;99.15
55410;BME280;41279;43.546;16.426;2023-04-03T04:14:52;52610.53;;;-146.77;98.44
55410;BME280;41279;43.546;16.426;2023-04-03T04:17:17;52594.50;;;-146.77;98.04
55410;BME280;41279;43.546;16.426;2023-04-03T04:19:43;52590.50;;;-146.77;97.94
55410;BME280;41279;43.546;16.426;2023-04-03T04:22:08;52598.50;;;-146.77;96.70
55410;BME280;41279;43.546;16.426;2023-04-03T04:24:34;52568.47;;;-146.77;96.33
55410;BME280;41279;43.546;16.426;2023-04-03T04:26:59;52586.50;;;-146.77;95.63
55410;BME280;41279;43.546;16.426;2023-04-03T04:29:25;52570.47;;;-146.77;95.64
55410;BME280;41279;43.546;16.426;2023-04-03T04:31:50;52576.50;;;-146.77;94.51
55410;BME280;41279;43.546;16.426;2023-04-03T04:34:15;52586.50;;;-146.77;94.81
55410;BME280;41279;43.546;16.426;2023-04-03T04:36:41;52552.47;;;-146.77;94.19
55410;BME280;41279;43.546;16.426;2023-04-03T04:39:07;52548.47;;;-146.77;93.34
55410;BME280;41279;43.546;16.426;2023-04-03T04:41:33;52578.50;;;-146.77;93.62
55410;BME280;41279;43.546;16.426;2023-04-03T04:44:00;52572.47;;;-146.77;93.64
55410;BME280;41279;43.546;16.426;2023-04-03T04:46:26;52594.50;;;-146.77;93.19
55410;BME280;41279;43.546;16.426;2023-04-03T04:48:51;52556.47;;;-146.77;92.81
55410;BME280;41279;43.546;16.426;2023-04-03T04:51:17;52582.50;;;-146.77;92.66
55410;BME280;41279;43.546;16.426;2023-04-03T04:53:43;52578.50;;;-146.77;92.07
55410;BME280;41279;43.546;16.426;2023-04-03T04:56:08;52564.47;;;-146.77;91.58
55410;BME280;41279;43.546;16.426;2023-04-03T04:58:34;52538.44;;;-146.77;90.83
55410;BME280;41279;43.546;16.426;2023-04-03T05:01:08;52542.44;;;-146.77;90.60
55410;BME280;41279;43.546;16.426;2023-04-03T05:03:34;52532.44;;;-146.77;90.21
55410;BME280;41279;43.546;16.426;2023-04-03T05:06:01;52534.44;;;-146.77;89.57
55410;BME280;41279;43.546;16.426;2023-04-03T05:08:27;52506.41;;;-146.77;88.31
55410;BME280;41279;43.546;16.426;2023-04-03T05:10:53;52498.41;;;-146.77;87.03
55410;BME280;41279;43.546;16.426;2023-04-03T05:13:19;52488.41;;;-146.77;85.92
55410;BME280;41279;43.546;16.426;2023-04-03T05:15:45;52504.41;;;-146.77;85.54
55410;BME280;41279;43.546;16.426;2023-04-03T05:18:10;52500.41;;;-146.77;85.69
55410;BME280;41279;43.546;16.426;2023-04-03T05:20:36;52518.44;;;-146.77;85.20
55410;BME280;41279;43.546;16.426;2023-04-03T05:23:02;52486.41;;;-146.77;85.17
55410;BME280;41279;43.546;16.426;2023-04-03T05:25:28;52490.41;;;-146.77;84.53
55410;BME280;41279;43.546;16.426;2023-04-03T05:27:53;52466.38;;;-146.77;84.84
55410;BME280;41279;43.546;16.426;2023-04-03T05:30:19;52508.41;;;-146.77;84.98
55410;BME280;41279;43.546;16.426;2023-04-03T05:32:44;52462.38;;;-146.77;84.01
55410;BME280;41279;43.546;16.426;2023-04-03T05:35:10;52474.38;;;-146.77;84.21
55410;BME280;41279;43.546;16.426;2023-04-03T05:37:36;52480.38;;;-146.77;83.88
55410;BME280;41279;43.546;16.426;2023-04-03T05:40:03;52458.38;;;-146.77;83.46
55410;BME280;41279;43.546;16.426;2023-04-03T05:42:29;52478.38;;;-146.77;84.02
55410;BME280;41279;43.546;16.426;2023-04-03T05:44:55;52466.38;;;-146.77;83.50
55410;BME280;41279;43.546;16.426;2023-04-03T05:47:20;52462.38;;;-146.77;83.42
55410;BME280;41279;43.546;16.426;2023-04-03T05:49:46;52458.38;;;-146.77;83.94
55410;BME280;41279;43.546;16.426;2023-04-03T05:52:22;52474.38;;;-146.77;83.43
55410;BME280;41279;43.546;16.426;2023-04-03T05:54:48;52474.38;;;-146.77;83.06
55410;BME280;41279;43.546;16.426;2023-04-03T05:57:15;52472.38;;;-146.77;83.40
55410;BME280;41279;43.546;16.426;2023-04-03T05:59:42;52460.38;;;-146.77;83.82
55410;BME280;41279;43.546;16.426;2023-04-03T06:02:10;52466.38;;;-146.77;84.09
55410;BME280;41279;43.546;16.426;2023-04-03T06:04:37;52470.38;;;-146.77;83.22
55410;BME280;41279;43.546;16.426;2023-04-03T06:07:03;52466.38;;;-146.77;82.37
55410;BME280;41279;43.546;16.426;2023-04-03T06:09:29;52476.38;;;-146.77;82.55
55410;BME280;41279;43.546;16.426;2023-04-03T06:11:55;52478.38;;;-146.77;82.79
55410;BME280;41279;43.546;16.426;2023-04-03T06:14:21;52474.38;;;-146.77;81.11
55410;BME280;41279;43.546;16.426;2023-04-03T06:16:46;52502.41;;;-146.77;80.94
55410;BME280;41279;43.546;16.426;2023-04-03T06:19:12;52474.38;;;-146.77;81.66
55410;BME280;41279;43.546;16.426;2023-04-03T06:21:38;52466.38;;;-146.77;80.76
55410;BME280;41279;43.546;16.426;2023-04-03T06:24:04;52478.38;;;-146.77;80.04
55410;BME280;41279;43.546;16.426;2023-04-03T06:26:30;52490.41;;;-146.77;79.79
55410;BME280;41279;43.546;16.426;2023-04-03T06:29:02;52500.41;;;-146.77;79.27
55410;BME280;41279;43.546;16.426;2023-04-03T06:31:34;52474.38;;;-146.77;79.37
55410;BME280;41279;43.546;16.426;2023-04-03T06:34:02;52490.41;;;-146.77;78.82
55410;BME280;41279;43.546;16.426;2023-04-03T06:36:28;52492.41;;;-146.77;79.58
55410;BME280;41279;43.546;16.426;2023-04-03T06:38:54;52484.38;;;-146.77;79.87
55410;BME280;41279;43.546;16.426;2023-04-03T06:41:20;52486.41;;;-146.77;80.35
55410;BME280;41279;43.546;16.426;2023-04-03T06:43:46;52506.41;;;-146.77;80.48
55410;BME280;41279;43.546;16.426;2023-04-03T06:46:21;52484.38;;;-146.77;79.68
55410;BME280;41279;43.546;16.426;2023-04-03T06:48:48;52486.41;;;-146.77;80.05
55410;BME280;41279;43.546;16.426;2023-04-03T06:51:24;52462.38;;;-146.77;79.85
55410;BME280;41279;43.546;16.426;2023-04-03T06:53:51;52492.41;;;-146.77;80.15
55410;BME280;41279;43.546;16.426;2023-04-03T06:56:17;52478.38;;;-146.77;79.98
55410;BME280;41279;43.546;16.426;2023-04-03T06:58:43;52488.41;;;-146.77;80.52
55410;BME280;41279;43.546;16.426;2023-04-03T07:01:11;52478.38;;;-146.77;78.66
55410;BME280;41279;43.546;16.426;2023-04-03T07:03:38;52502.41;;;-146.77;79.11
55410;BME280;41279;43.546;16.426;2023-04-03T07:06:04;52494.41;;;-146.77;78.25
55410;BME280;41279;43.546;16.426;2023-04-03T07:08:31;52478.38;;;-146.77;78.15
55410;BME280;41279;43.546;16.426;2023-04-03T07:10:57;52494.41;;;-146.77;78.99
55410;BME280;41279;43.546;16.426;2023-04-03T07:13:22;52498.41;;;-146.77;78.66
55410;BME280;41279;43.546;16.426;2023-04-03T07:15:48;52478.38;;;-146.77;79.01
55410;BME280;41279;43.546;16.426;2023-04-03T07:18:13;52476.38;;;-146.77;78.24
55410;BME280;41279;43.546;16.426;2023-04-03T07:20:39;52466.38;;;-146.77;77.99
55410;BME280;41279;43.546;16.426;2023-04-03T07:23:05;52474.38;;;-146.77;78.11
55410;BME280;41279;43.546;16.426;2023-04-03T07:25:31;52454.34;;;-146.77;77.48
55410;BME280;41279;43.546;16.426;2023-04-03T07:27:57;52464.38;;;-146.77;77.00
55410;BME280;41279;43.546;16.426;2023-04-03T07:30:22;52452.34;;;-146.77;77.64
55410;BME280;41279;43.546;16.426;2023-04-03T07:32:48;52482.38;;;-146.77;77.14
55410;BME280;41279;43.546;16.426;2023-04-03T07:35:13;52516.41;;;-146.77;76.95
55410;BME280;41279;43.546;16.426;2023-04-03T07:37:39;52456.38;;;-146.77;76.67
55410;BME280;41279;43.546;16.426;2023-04-03T07:40:05;52486.41;;;-146.77;76.19
55410;BME280;41279;43.546;16.426;2023-04-03T07:42:31;52450.34;;;-146.77;76.85
55410;BME280;41279;43.546;16.426;2023-04-03T07:44:57;52498.41;;;-146.77;77.47
55410;BME280;41279;43.546;16.426;2023-04-03T07:47:22;52492.41;;;-146.77;76.95
55410;BME280;41279;43.546;16.426;2023-04-03T07:49:48;52494.41;;;-146.77;77.07
55410;BME280;41279;43.546;16.426;2023-04-03T07:52:14;52482.38;;;-146.77;76.39
55410;BME280;41279;43.546;16.426;2023-04-03T07:54:42;52482.38;;;-146.77;77.01
55410;BME280;41279;43.546;16.426;2023-04-03T07:57:08;52476.38;;;-146.77;76.20
55410;BME280;41279;43.546;16.426;2023-04-03T07:59:33;52470.38;;;-146.77;76.04
55410;BME280;41279;43.546;16.426;2023-04-03T08:01:59;52474.38;;;-146.77;75.34
55410;BME280;41279;43.546;16.426;2023-04-03T08:04:24;52484.38;;;-146.77;76.05
55410;BME280;41279;43.546;16.426;2023-04-03T08:06:51;52492.41;;;-146.77;74.70
55410;BME280;41279;43.546;16.426;2023-04-03T08:09:17;52498.41;;;-146.77;74.05
55410;BME280;41279;43.546;16.426;2023-04-03T08:11:44;52502.41;;;-146.77;75.02
55410;BME280;41279;43.546;16.426;2023-04-03T08:14:09;52492.41;;;-146.77;74.99
55410;BME280;41279;43.546;16.426;2023-04-03T08:16:40;52478.38;;;-146.77;75.54
55410;BME280;41279;43.546;16.426;2023-04-03T08:19:06;52482.38;;;-146.77;75.17
55410;BME280;41279;43.546;16.426;2023-04-03T08:21:32;52486.41;;;-146.77;75.76
55410;BME280;41279;43.546;16.426;2023-04-03T08:23:58;52466.38;;;-146.77;75.28
55410;BME280;41279;43.546;16.426;2023-04-03T08:26:23;52476.38;;;-146.77;76.14
55410;BME280;41279;43.546;16.426;2023-04-03T08:28:49;52488.41;;;-146.77;75.79
55410;BME280;41279;43.546;16.426;2023-04-03T08:31:17;52472.38;;;-146.77;75.52
55410;BME280;41279;43.546;16.426;2023-04-03T08:33:44;52478.38;;;-146.77;75.54
55410;BME280;41279;43.546;16.426;2023-04-03T08:36:25;52486.41;;;-146.77;75.95
55410;BME280;41279;43.546;16.426;2023-04-03T08:38:53;52492.41;;;-146.77;75.84
55410;BME280;41279;43.546;16.426;2023-04-03T08:49:36;52480.38;;;-146.77;75.85
55410;BME280;41279;43.546;16.426;2023-04-03T08:52:14;52486.41;;;-146.77;75.93
55410;BME280;41279;43.546;16.426;2023-04-03T08:54:52;52498.41;;;-146.77;74.97
55410;BME280;41279;43.546;16.426;2023-04-03T08:57:33;52458.38;;;-146.77;75.64
55410;BME280;41279;43.546;16.426;2023-04-03T09:02:45;52502.41;;;-146.77;75.86
55410;BME280;41279;43.546;16.426;2023-04-03T09:05:20;52500.41;;;-146.77;76.08
55410;BME280;41279;43.546;16.426;2023-04-03T09:07:57;52464.38;;;-146.77;75.67
55410;BME280;41279;43.546;16.426;2023-04-03T09:10:29;52468.38;;;-146.77;75.83
55410;BME280;41279;43.546;16.426;2023-04-03T09:15:46;52476.38;;;-146.77;74.87
55410;BME280;41279;43.546;16.426;2023-04-03T09:18:26;52490.41;;;-146.77;74.17
55410;BME280;41279;43.546;16.426;2023-04-03T09:21:17;52500.41;;;-146.77;74.06
55410;BME280;41279;43.546;16.426;2023-04-03T09:23:48;52470.38;;;-146.77;74.68
55410;BME280;41279;43.546;16.426;2023-04-03T09:26:25;52478.38;;;-146.77;75.12
55410;BME280;41279;43.546;16.426;2023-04-03T09:28:56;52488.41;;;-146.77;75.36
55410;BME280;41279;43.546;16.426;2023-04-03T09:31:26;52492.41;;;-146.77;75.29
55410;BME280;41279;43.546;16.426;2023-04-03T09:33:56;52486.41;;;-146.77;73.74
55410;BME280;41279;43.546;16.426;2023-04-03T09:39:14;52470.38;;;-146.77;74.23
55410;BME280;41279;43.546;16.426;2023-04-03T09:41:41;52462.38;;;-146.77;73.65
55410;BME280;41279;43.546;16.426;2023-04-03T09:44:32;52458.38;;;-146.77;73.06
55410;BME280;41279;43.546;16.426;2023-04-03T09:46:58;52488.41;;;-146.77;73.25
55410;BME280;41279;43.546;16.426;2023-04-03T09:49:24;52466.38;;;-146.77;72.91
55410;BME280;41279;43.546;16.426;2023-04-03T09:51:50;52462.38;;;-146.77;73.13
55410;BME280;41279;43.546;16.426;2023-04-03T09:54:34;52466.38;;;-146.77;72.42
55410;BME280;41279;43.546;16.426;2023-04-03T09:57:12;52494.41;;;-146.77;72.81
55410;BME280;41279;43.546;16.426;2023-04-03T09:59:56;52482.38;;;-146.77;72.09
55410;BME280;41279;43.546;16.426;2023-04-03T10:02:50;52472.38;;;-146.77;71.14
55410;BME280;41279;43.546;16.426;2023-04-03T10:05:34;52460.38;;;-146.77;71.74
55410;BME280;41279;43.546;16.426;2023-04-03T10:10:47;52458.38;;;-146.77;70.78
55410;BME280;41279;43.546;16.426;2023-04-03T10:13:17;52472.38;;;-146.77;70.59
55410;BME280;41279;43.546;16.426;2023-04-03T10:15:50;52486.41;;;-146.77;70.99
55410;BME280;41279;43.546;16.426;2023-04-03T10:18:29;52496.41;;;-146.77;69.61
55410;BME280;41279;43.546;16.426;2023-04-03T10:21:05;52484.38;;;-146.77;69.98
55410;BME280;41279;43.546;16.426;2023-04-03T10:27:13;52456.38;;;-146.77;69.12
55410;BME280;41279;43.546;16.426;2023-04-03T10:30:25;52502.41;;;-146.77;69.98
55410;BME280;41279;43.546;16.426;2023-04-03T10:35:39;52484.38;;;-146.77;68.88
55410;BME280;41279;43.546;16.426;2023-04-03T10:41:12;52462.38;;;-146.77;69.27
55410;BME280;41279;43.546;16.426;2023-04-03T10:46:22;52460.38;;;-146.77;68.08
55410;BME280;41279;43.546;16.426;2023-04-03T10:51:28;52452.34;;;-146.77;68.86
55410;BME280;41279;43.546;16.426;2023-04-03T10:54:24;52480.38;;;-146.77;70.25
55410;BME280;41279;43.546;16.426;2023-04-03T10:57:06;52466.38;;;-146.77;68.92
55410;BME280;41279;43.546;16.426;2023-04-03T10:59:38;52472.38;;;-146.77;69.46
55410;BME280;41279;43.546;16.426;2023-04-03T11:02:28;52478.38;;;-146.77;70.03
55410;BME280;41279;43.546;16.426;2023-04-03T11:05:15;52476.38;;;-146.77;70.18
55410;BME280;41279;43.546;16.426;2023-04-03T11:07:47;52466.38;;;-146.77;69.03
55410;BME280;41279;43.546;16.426;2023-04-03T11:10:35;52478.38;;;-146.77;69.66
55410;BME280;41279;43.546;16.426;2023-04-03T11:13:11;52438.34;;;-146.77;69.54
55410;BME280;41279;43.546;16.426;2023-04-03T11:15:39;52454.34;;;-146.77;69.04
55410;BME280;41279;43.546;16.426;2023-04-03T11:18:13;52478.38;;;-146.77;68.93
55410;BME280;41279;43.546;16.426;2023-04-03T11:20:43;52466.38;;;-146.77;69.21
55410;BME280;41279;43.546;16.426;2023-04-03T11:23:26;52490.41;;;-146.77;68.81
55410;BME280;41279;43.546;16.426;2023-04-03T11:25:59;52456.38;;;-146.77;69.39
55410;BME280;41279;43.546;16.426;2023-04-03T11:28:29;52474.38;;;-146.77;68.05
55410;BME280;41279;43.546;16.426;2023-04-03T11:31:09;52482.38;;;-146.77;67.53
55410;BME280;41279;43.546;16.426;2023-04-03T11:36:24;52474.38;;;-146.77;67.75
55410;BME280;41279;43.546;16.426;2023-04-03T11:38:57;52466.38;;;-146.77;68.83
55410;BME280;41279;43.546;16.426;2023-04-03T11:41:31;52482.38;;;-146.77;67.57
55410;BME280;41279;43.546;16.426;2023-04-03T11:44:01;52478.38;;;-146.77;67.12
55410;BME280;41279;43.546;16.426;2023-04-03T11:46:56;52478.38;;;-146.77;67.41
55410;BME280;41279;43.546;16.426;2023-04-03T12:05:48;52448.34;;;-146.77;67.08
55410;BME280;41279;43.546;16.426;2023-04-03T12:13:36;52476.38;;;-146.77;65.97
55410;BME280;41279;43.546;16.426;2023-04-03T12:16:04;52474.38;;;-146.77;66.47
55410;BME280;41279;43.546;16.426;2023-04-03T12:21:14;52466.38;;;-146.77;66.42
55410;BME280;41279;43.546;16.426;2023-04-03T12:26:38;52488.41;;;-146.77;68.10
55410;BME280;41279;43.546;16.426;2023-04-03T12:29:33;52448.34;;;-146.77;68.40
55410;BME280;41279;43.546;16.426;2023-04-03T12:35:09;52488.41;;;-146.77;69.06
55410;BME280;41279;43.546;16.426;2023-04-03T12:37:40;52490.41;;;-146.77;68.72
55410;BME280;41279;43.546;16.426;2023-04-03T12:46:11;52466.38;;;-146.77;69.28
55410;BME280;41279;43.546;16.426;2023-04-03T12:48:54;52472.38;;;-146.77;68.54
55410;BME280;41279;43.546;16.426;2023-04-03T12:54:02;52446.34;;;-146.77;67.97
55410;BME280;41279;43.546;16.426;2023-04-03T12:56:31;52516.41;;;-146.77;68.47
55410;BME280;41279;43.546;16.426;2023-04-03T12:59:20;52434.34;;;-146.77;68.39
55410;BME280;41279;43.546;16.426;2023-04-03T13:02:00;52476.38;;;-146.77;67.42
55410;BME280;41279;43.546;16.426;2023-04-03T13:04:30;52468.38;;;-146.77;66.76
55410;BME280;41279;43.546;16.426;2023-04-03T13:06:56;52470.38;;;-146.77;66.31
55410;BME280;41279;43.546;16.426;2023-04-03T13:09:25;52458.38;;;-146.77;66.48
55410;BME280;41279;43.546;16.426;2023-04-03T13:12:03;52452.34;;;-146.77;66.55
55410;BME280;41279;43.546;16.426;2023-04-03T13:14:34;52462.38;;;-146.77;65.56
55410;BME280;41279;43.546;16.426;2023-04-03T13:17:12;52470.38;;;-146.77;65.43
55410;BME280;41279;43.546;16.426;2023-04-03T13:19:40;52440.34;;;-146.77;65.06
55410;BME280;41279;43.546;16.426;2023-04-03T13:22:35;52456.38;;;-146.77;64.99
55410;BME280;41279;43.546;16.426;2023-04-03T13:25:06;52476.38;;;-146.77;65.25
55410;BME280;41279;43.546;16.426;2023-04-03T13:27:33;52440.34;;;-146.77;65.25
55410;BME280;41279;43.546;16.426;2023-04-03T13:30:01;52442.34;;;-146.77;65.63
55410;BME280;41279;43.546;16.426;2023-04-03T13:32:28;52466.38;;;-146.77;65.63
55410;BME280;41279;43.546;16.426;2023-04-03T13:34:55;52460.38;;;-146.77;65.50
55410;BME280;41279;43.546;16.426;2023-04-03T13:42:31;52462.38;;;-146.77;65.08
55410;BME280;41279;43.546;16.426;2023-04-03T13:47:40;52484.38;;;-146.77;65.98
55410;BME280;41279;43.546;16.426;2023-04-03T13:50:25;52480.38;;;-146.77;66.17
55410;BME280;41279;43.546;16.426;2023-04-03T13:58:02;52498.41;;;-146.77;66.44
55410;BME280;41279;43.546;16.426;2023-04-03T14:02:57;52518.44;;;-146.77;65.98
55410;BME280;41279;43.546;16.426;2023-04-03T14:05:23;52498.41;;;-146.77;67.48
55410;BME280;41279;43.546;16.426;2023-04-03T14:07:51;52498.41;;;-146.77;66.71
55410;BME280;41279;43.546;16.426;2023-04-03T14:10:17;52502.41;;;-146.77;65.66